sensor_id;sensor_type;location;lat;lon;timestamp;P1;durP1;ratioP1;P2;durP2;ratioP2
5379;SDS011;2713;42.680;23.310;2023-04-16T00:01:00;3.63;;;3.27;;
5379;SDS011;2713;42.680;23.310;2023-04-16T00:03:27;4.80;;;3.30;;
5379;SDS011;2713;42.680;23.310;2023-04-16T00:05:54;4.07;;;2.97;;
5379;SDS011;2713;42.680;23.310;2023-04-16T00:08:21;3.20;;;2.80;;
5379;SDS011;2713;42.680;23.310;2023-04-16T00:10:49;3.03;;;2.73;;
5379;SDS011;2713;42.680;23.310;2023-04-16T00:13:17;4.40;;;3.23;;
5379;SDS011;2713;42.680;23.310;2023-04-16T00:15:44;7.43;;;3.70;;
5379;SDS011;2713;42.680;23.310;2023-04-16T00:18:11;4.60;;;3.23;;
5379;SDS011;2713;42.680;23.310;2023-04-16T00:20:38;3.83;;;2.90;;
5379;SDS011;2713;42.680;23.310;2023-04-16T00:23:05;3.50;;;3.20;;
5379;SDS011;2713;42.680;23.310;2023-04-16T00:25:31;3.63;;;3.10;;
5379;SDS011;2713;42.680;23.310;2023-04-16T00:27:58;5.80;;;3.40;;
5379;SDS011;2713;42.680;23.310;2023-04-16T00:30:26;4.03;;;3.70;;
5379;SDS011;2713;42.680;23.310;2023-04-16T00:32:53;8.60;;;4.23;;
5379;SDS011;2713;42.680;23.310;2023-04-16T00:35:20;3.70;;;3.40;;
5379;SDS011;2713;42.680;23.310;2023-04-16T00:37:47;4.53;;;3.63;;
5379;SDS011;2713;42.680;23.310;2023-04-16T00:40:14;5.13;;;3.30;;
5379;SDS011;2713;42.680;23.310;2023-04-16T00:42:40;5.40;;;3.47;;
5379;SDS011;2713;42.680;23.310;2023-04-16T00:45:08;4.13;;;3.70;;
5379;SDS011;2713;42.680;23.310;2023-04-16T00:47:37;7.53;;;4.03;;
5379;SDS011;2713;42.680;23.310;2023-04-16T00:50:04;6.13;;;4.80;;
5379;SDS011;2713;42.680;23.310;2023-04-16T00:52:32;9.40;;;5.30;;
5379;SDS011;2713;42.680;23.310;2023-04-16T00:55:00;8.77;;;5.70;;
5379;SDS011;2713;42.680;23.310;2023-04-16T00:57:27;7.97;;;5.37;;
5379;SDS011;2713;42.680;23.310;2023-04-16T00:59:53;10.10;;;5.50;;
5379;SDS011;2713;42.680;23.310;2023-04-16T01:02:21;8.57;;;5.20;;
5379;SDS011;2713;42.680;23.310;2023-04-16T01:04:50;8.93;;;5.20;;
5379;SDS011;2713;42.680;23.310;2023-04-16T01:07:17;8.03;;;4.53;;
5379;SDS011;2713;42.680;23.310;2023-04-16T01:09:44;6.20;;;4.40;;
5379;SDS011;2713;42.680;23.310;2023-04-16T01:12:10;6.57;;;4.63;;
5379;SDS011;2713;42.680;23.310;2023-04-16T01:14:37;6.53;;;5.07;;
5379;SDS011;2713;42.680;23.310;2023-04-16T01:17:04;6.53;;;4.63;;
5379;SDS011;2713;42.680;23.310;2023-04-16T01:19:31;6.43;;;4.67;;
5379;SDS011;2713;42.680;23.310;2023-04-16T01:22:02;5.67;;;4.60;;
5379;SDS011;2713;42.680;23.310;2023-04-16T01:24:29;6.10;;;4.13;;
5379;SDS011;2713;42.680;23.310;2023-04-16T01:26:57;7.57;;;4.23;;
5379;SDS011;2713;42.680;23.310;2023-04-16T01:29:24;7.47;;;3.87;;
5379;SDS011;2713;42.680;23.310;2023-04-16T01:34:27;6.13;;;3.80;;
5379;SDS011;2713;42.680;23.310;2023-04-16T01:36:54;4.63;;;3.70;;
5379;SDS011;2713;42.680;23.310;2023-04-16T01:39:22;5.53;;;3.97;;
5379;SDS011;2713;42.680;23.310;2023-04-16T01:41:49;5.00;;;4.20;;
5379;SDS011;2713;42.680;23.310;2023-04-16T01:44:16;5.73;;;4.73;;
5379;SDS011;2713;42.680;23.310;2023-04-16T01:46:43;5.87;;;4.37;;
5379;SDS011;2713;42.680;23.310;2023-04-16T01:49:10;5.73;;;4.47;;
5379;SDS011;2713;42.680;23.310;2023-04-16T01:51:37;8.27;;;4.20;;
5379;SDS011;2713;42.680;23.310;2023-04-16T01:54:04;7.27;;;3.93;;
5379;SDS011;2713;42.680;23.310;2023-04-16T01:56:32;5.53;;;3.93;;
5379;SDS011;2713;42.680;23.310;2023-04-16T01:58:59;8.87;;;3.93;;
5379;SDS011;2713;42.680;23.310;2023-04-16T02:01:31;5.50;;;4.17;;
5379;SDS011;2713;42.680;23.310;2023-04-16T02:03:58;4.97;;;4.07;;
5379;SDS011;2713;42.680;23.310;2023-04-16T02:06:25;4.40;;;4.00;;
5379;SDS011;2713;42.680;23.310;2023-04-16T02:08:52;4.70;;;3.87;;
5379;SDS011;2713;42.680;23.310;2023-04-16T02:11:19;6.60;;;4.40;;
5379;SDS011;2713;42.680;23.310;2023-04-16T02:13:49;8.17;;;4.30;;
5379;SDS011;2713;42.680;23.310;2023-04-16T02:16:17;7.73;;;4.20;;
5379;SDS011;2713;42.680;23.310;2023-04-16T02:18:50;11.10;;;4.80;;
5379;SDS011;2713;42.680;23.310;2023-04-16T02:21:19;7.33;;;5.13;;
5379;SDS011;2713;42.680;23.310;2023-04-16T02:23:46;5.90;;;5.00;;
5379;SDS011;2713;42.680;23.310;2023-04-16T02:26:17;8.37;;;5.30;;
5379;SDS011;2713;42.680;23.310;2023-04-16T02:28:44;5.33;;;4.83;;
5379;SDS011;2713;42.680;23.310;2023-04-16T02:31:13;8.10;;;5.83;;
5379;SDS011;2713;42.680;23.310;2023-04-16T02:33:43;5.83;;;4.80;;
5379;SDS011;2713;42.680;23.310;2023-04-16T02:36:10;11.23;;;6.07;;
5379;SDS011;2713;42.680;23.310;2023-04-16T02:38:37;7.50;;;5.60;;
5379;SDS011;2713;42.680;23.310;2023-04-16T02:41:04;9.07;;;5.40;;
5379;SDS011;2713;42.680;23.310;2023-04-16T02:43:32;7.23;;;5.40;;
5379;SDS011;2713;42.680;23.310;2023-04-16T02:46:00;7.60;;;5.20;;
5379;SDS011;2713;42.680;23.310;2023-04-16T02:48:28;11.43;;;5.50;;
5379;SDS011;2713;42.680;23.310;2023-04-16T02:50:55;7.57;;;5.30;;
5379;SDS011;2713;42.680;23.310;2023-04-16T02:53:21;5.30;;;4.80;;
5379;SDS011;2713;42.680;23.310;2023-04-16T02:55:49;5.93;;;4.40;;
5379;SDS011;2713;42.680;23.310;2023-04-16T02:58:17;4.23;;;3.93;;
5379;SDS011;2713;42.680;23.310;2023-04-16T03:00:44;4.40;;;3.80;;
5379;SDS011;2713;42.680;23.310;2023-04-16T03:03:11;4.37;;;3.70;;
5379;SDS011;2713;42.680;23.310;2023-04-16T03:05:39;4.63;;;4.10;;
5379;SDS011;2713;42.680;23.310;2023-04-16T03:08:06;4.50;;;3.60;;
5379;SDS011;2713;42.680;23.310;2023-04-16T03:10:33;5.17;;;3.77;;
5379;SDS011;2713;42.680;23.310;2023-04-16T03:13:00;4.00;;;3.70;;
5379;SDS011;2713;42.680;23.310;2023-04-16T03:15:27;4.13;;;3.10;;
5379;SDS011;2713;42.680;23.310;2023-04-16T03:17:54;3.43;;;3.13;;
5379;SDS011;2713;42.680;23.310;2023-04-16T03:20:21;4.80;;;3.37;;
5379;SDS011;2713;42.680;23.310;2023-04-16T03:22:49;3.60;;;3.30;;
5379;SDS011;2713;42.680;23.310;2023-04-16T03:25:17;3.80;;;3.30;;
5379;SDS011;2713;42.680;23.310;2023-04-16T03:27:44;3.30;;;3.00;;
5379;SDS011;2713;42.680;23.310;2023-04-16T03:30:12;3.30;;;3.00;;
5379;SDS011;2713;42.680;23.310;2023-04-16T03:32:41;3.33;;;3.03;;
5379;SDS011;2713;42.680;23.310;2023-04-16T03:35:09;4.23;;;3.83;;
5379;SDS011;2713;42.680;23.310;2023-04-16T03:37:36;2.77;;;2.57;;
5379;SDS011;2713;42.680;23.310;2023-04-16T03:40:05;3.30;;;3.00;;
5379;SDS011;2713;42.680;23.310;2023-04-16T03:42:33;3.67;;;3.37;;
5379;SDS011;2713;42.680;23.310;2023-04-16T03:45:01;3.83;;;3.43;;
5379;SDS011;2713;42.680;23.310;2023-04-16T03:47:28;6.60;;;4.27;;
5379;SDS011;2713;42.680;23.310;2023-04-16T03:49:59;5.50;;;4.10;;
5379;SDS011;2713;42.680;23.310;2023-04-16T03:52:26;5.83;;;4.40;;
5379;SDS011;2713;42.680;23.310;2023-04-16T03:54:53;5.80;;;4.90;;
5379;SDS011;2713;42.680;23.310;2023-04-16T03:57:27;5.90;;;5.30;;
5379;SDS011;2713;42.680;23.310;2023-04-16T03:59:59;11.93;;;6.90;;
5379;SDS011;2713;42.680;23.310;2023-04-16T04:02:30;7.13;;;6.00;;
5379;SDS011;2713;42.680;23.310;2023-04-16T04:04:57;9.47;;;6.60;;
5379;SDS011;2713;42.680;23.310;2023-04-16T04:07:24;10.27;;;5.90;;
5379;SDS011;2713;42.680;23.310;2023-04-16T04:09:51;8.30;;;6.23;;
5379;SDS011;2713;42.680;23.310;2023-04-16T04:12:19;5.90;;;5.30;;
5379;SDS011;2713;42.680;23.310;2023-04-16T04:14:47;7.70;;;5.57;;
5379;SDS011;2713;42.680;23.310;2023-04-16T04:17:14;7.13;;;5.20;;
5379;SDS011;2713;42.680;23.310;2023-04-16T04:19:41;7.27;;;5.90;;
5379;SDS011;2713;42.680;23.310;2023-04-16T04:22:08;9.13;;;5.40;;
5379;SDS011;2713;42.680;23.310;2023-04-16T04:24:36;6.10;;;5.50;;
5379;SDS011;2713;42.680;23.310;2023-04-16T04:27:03;6.87;;;5.50;;
5379;SDS011;2713;42.680;23.310;2023-04-16T04:29:30;7.80;;;5.77;;
5379;SDS011;2713;42.680;23.310;2023-04-16T04:31:58;5.97;;;5.03;;
5379;SDS011;2713;42.680;23.310;2023-04-16T04:34:25;8.07;;;5.90;;
5379;SDS011;2713;42.680;23.310;2023-04-16T04:36:54;10.10;;;5.33;;
5379;SDS011;2713;42.680;23.310;2023-04-16T04:39:21;6.00;;;5.40;;
5379;SDS011;2713;42.680;23.310;2023-04-16T04:41:48;6.23;;;5.20;;
5379;SDS011;2713;42.680;23.310;2023-04-16T04:44:17;6.43;;;5.20;;
5379;SDS011;2713;42.680;23.310;2023-04-16T04:46:43;11.57;;;6.20;;
5379;SDS011;2713;42.680;23.310;2023-04-16T04:49:12;8.23;;;6.00;;
5379;SDS011;2713;42.680;23.310;2023-04-16T04:51:39;9.00;;;5.73;;
5379;SDS011;2713;42.680;23.310;2023-04-16T04:54:06;10.73;;;5.97;;
5379;SDS011;2713;42.680;23.310;2023-04-16T04:56:32;9.20;;;5.60;;
5379;SDS011;2713;42.680;23.310;2023-04-16T04:58:59;6.50;;;5.30;;
5379;SDS011;2713;42.680;23.310;2023-04-16T05:01:26;8.77;;;6.27;;
5379;SDS011;2713;42.680;23.310;2023-04-16T05:03:53;6.70;;;5.60;;
5379;SDS011;2713;42.680;23.310;2023-04-16T05:06:21;6.40;;;5.80;;
5379;SDS011;2713;42.680;23.310;2023-04-16T05:08:48;10.77;;;6.37;;
5379;SDS011;2713;42.680;23.310;2023-04-16T05:11:15;9.97;;;5.90;;
5379;SDS011;2713;42.680;23.310;2023-04-16T05:13:41;7.90;;;6.40;;
5379;SDS011;2713;42.680;23.310;2023-04-16T05:16:08;8.00;;;6.13;;
5379;SDS011;2713;42.680;23.310;2023-04-16T05:18:35;6.97;;;6.20;;
5379;SDS011;2713;42.680;23.310;2023-04-16T05:21:02;8.43;;;6.03;;
5379;SDS011;2713;42.680;23.310;2023-04-16T05:23:30;6.90;;;6.20;;
5379;SDS011;2713;42.680;23.310;2023-04-16T05:25:57;8.43;;;6.00;;
5379;SDS011;2713;42.680;23.310;2023-04-16T05:28:23;7.73;;;5.97;;
5379;SDS011;2713;42.680;23.310;2023-04-16T05:30:50;9.70;;;7.20;;
5379;SDS011;2713;42.680;23.310;2023-04-16T05:33:17;6.97;;;5.30;;
5379;SDS011;2713;42.680;23.310;2023-04-16T05:35:44;9.33;;;4.80;;
5379;SDS011;2713;42.680;23.310;2023-04-16T05:38:10;9.10;;;5.10;;
5379;SDS011;2713;42.680;23.310;2023-04-16T05:40:38;5.00;;;4.50;;
5379;SDS011;2713;42.680;23.310;2023-04-16T05:43:05;4.63;;;4.07;;
5379;SDS011;2713;42.680;23.310;2023-04-16T05:45:32;4.57;;;3.87;;
5379;SDS011;2713;42.680;23.310;2023-04-16T05:48:03;4.77;;;3.90;;
5379;SDS011;2713;42.680;23.310;2023-04-16T05:50:31;5.30;;;3.90;;
5379;SDS011;2713;42.680;23.310;2023-04-16T05:52:57;8.67;;;5.17;;
5379;SDS011;2713;42.680;23.310;2023-04-16T05:55:24;5.07;;;4.23;;
5379;SDS011;2713;42.680;23.310;2023-04-16T05:57:52;6.70;;;4.60;;
5379;SDS011;2713;42.680;23.310;2023-04-16T06:00:19;5.40;;;4.90;;
5379;SDS011;2713;42.680;23.310;2023-04-16T06:02:46;6.20;;;5.60;;
5379;SDS011;2713;42.680;23.310;2023-04-16T06:05:13;7.10;;;5.40;;
5379;SDS011;2713;42.680;23.310;2023-04-16T06:07:40;7.77;;;5.60;;
5379;SDS011;2713;42.680;23.310;2023-04-16T06:10:07;6.80;;;5.60;;
5379;SDS011;2713;42.680;23.310;2023-04-16T06:12:34;6.63;;;5.57;;
5379;SDS011;2713;42.680;23.310;2023-04-16T06:15:02;9.40;;;6.17;;
5379;SDS011;2713;42.680;23.310;2023-04-16T06:17:30;9.23;;;5.60;;
5379;SDS011;2713;42.680;23.310;2023-04-16T06:19:56;8.87;;;6.03;;
5379;SDS011;2713;42.680;23.310;2023-04-16T06:22:23;11.57;;;6.07;;
5379;SDS011;2713;42.680;23.310;2023-04-16T06:24:51;5.87;;;5.10;;
5379;SDS011;2713;42.680;23.310;2023-04-16T06:27:18;7.40;;;5.60;;
5379;SDS011;2713;42.680;23.310;2023-04-16T06:29:45;6.37;;;5.40;;
5379;SDS011;2713;42.680;23.310;2023-04-16T06:32:13;7.23;;;5.60;;
5379;SDS011;2713;42.680;23.310;2023-04-16T06:34:41;9.97;;;5.47;;
5379;SDS011;2713;42.680;23.310;2023-04-16T06:37:08;6.63;;;5.70;;
5379;SDS011;2713;42.680;23.310;2023-04-16T06:39:35;7.70;;;5.67;;
5379;SDS011;2713;42.680;23.310;2023-04-16T06:42:01;8.90;;;5.73;;
5379;SDS011;2713;42.680;23.310;2023-04-16T06:44:29;6.47;;;5.57;;
5379;SDS011;2713;42.680;23.310;2023-04-16T06:46:56;6.70;;;5.57;;
5379;SDS011;2713;42.680;23.310;2023-04-16T06:49:24;6.07;;;5.53;;
5379;SDS011;2713;42.680;23.310;2023-04-16T06:51:51;8.63;;;5.00;;
5379;SDS011;2713;42.680;23.310;2023-04-16T06:54:17;5.97;;;5.27;;
5379;SDS011;2713;42.680;23.310;2023-04-16T06:56:44;7.70;;;5.80;;
5379;SDS011;2713;42.680;23.310;2023-04-16T06:59:11;12.57;;;6.20;;
5379;SDS011;2713;42.680;23.310;2023-04-16T07:01:38;5.83;;;5.30;;
5379;SDS011;2713;42.680;23.310;2023-04-16T07:04:05;6.10;;;4.60;;
5379;SDS011;2713;42.680;23.310;2023-04-16T07:06:33;5.00;;;4.50;;
5379;SDS011;2713;42.680;23.310;2023-04-16T07:09:00;5.40;;;4.90;;
5379;SDS011;2713;42.680;23.310;2023-04-16T07:11:27;6.17;;;5.10;;
5379;SDS011;2713;42.680;23.310;2023-04-16T07:13:54;8.40;;;6.20;;
5379;SDS011;2713;42.680;23.310;2023-04-16T07:16:21;5.23;;;4.60;;
5379;SDS011;2713;42.680;23.310;2023-04-16T07:18:48;6.83;;;4.80;;
5379;SDS011;2713;42.680;23.310;2023-04-16T07:21:15;9.67;;;4.43;;
5379;SDS011;2713;42.680;23.310;2023-04-16T07:23:43;5.90;;;4.50;;
5379;SDS011;2713;42.680;23.310;2023-04-16T07:26:10;9.97;;;4.90;;
5379;SDS011;2713;42.680;23.310;2023-04-16T07:28:37;5.40;;;4.70;;
5379;SDS011;2713;42.680;23.310;2023-04-16T07:31:03;6.67;;;4.30;;
5379;SDS011;2713;42.680;23.310;2023-04-16T07:33:30;5.57;;;4.17;;
5379;SDS011;2713;42.680;23.310;2023-04-16T07:35:57;4.40;;;4.00;;
5379;SDS011;2713;42.680;23.310;2023-04-16T07:38:24;4.30;;;3.90;;
5379;SDS011;2713;42.680;23.310;2023-04-16T07:40:52;9.20;;;5.83;;
5379;SDS011;2713;42.680;23.310;2023-04-16T07:43:20;5.50;;;5.00;;
5379;SDS011;2713;42.680;23.310;2023-04-16T07:45:47;6.07;;;3.67;;
5379;SDS011;2713;42.680;23.310;2023-04-16T07:48:14;7.37;;;4.93;;
5379;SDS011;2713;42.680;23.310;2023-04-16T07:50:40;7.60;;;4.90;;
5379;SDS011;2713;42.680;23.310;2023-04-16T07:53:08;7.20;;;5.20;;
5379;SDS011;2713;42.680;23.310;2023-04-16T07:55:35;6.83;;;5.43;;
5379;SDS011;2713;42.680;23.310;2023-04-16T07:58:03;7.40;;;5.10;;
5379;SDS011;2713;42.680;23.310;2023-04-16T08:00:32;5.63;;;4.90;;
5379;SDS011;2713;42.680;23.310;2023-04-16T08:02:58;6.77;;;4.70;;
5379;SDS011;2713;42.680;23.310;2023-04-16T08:05:26;5.40;;;4.90;;
5379;SDS011;2713;42.680;23.310;2023-04-16T08:07:52;5.50;;;4.43;;
5379;SDS011;2713;42.680;23.310;2023-04-16T08:10:19;7.80;;;5.30;;
5379;SDS011;2713;42.680;23.310;2023-04-16T08:12:46;9.53;;;5.03;;
5379;SDS011;2713;42.680;23.310;2023-04-16T08:15:14;7.67;;;5.70;;
5379;SDS011;2713;42.680;23.310;2023-04-16T08:17:41;11.30;;;5.87;;
5379;SDS011;2713;42.680;23.310;2023-04-16T08:20:08;5.63;;;5.00;;
5379;SDS011;2713;42.680;23.310;2023-04-16T08:22:35;8.83;;;5.53;;
5379;SDS011;2713;42.680;23.310;2023-04-16T08:25:02;6.57;;;4.93;;
5379;SDS011;2713;42.680;23.310;2023-04-16T08:27:29;5.00;;;4.50;;
5379;SDS011;2713;42.680;23.310;2023-04-16T08:29:56;5.77;;;4.60;;
5379;SDS011;2713;42.680;23.310;2023-04-16T08:32:24;8.90;;;5.57;;
5379;SDS011;2713;42.680;23.310;2023-04-16T08:34:51;5.60;;;4.40;;
5379;SDS011;2713;42.680;23.310;2023-04-16T08:37:18;5.30;;;4.67;;
5379;SDS011;2713;42.680;23.310;2023-04-16T08:39:45;5.63;;;4.10;;
5379;SDS011;2713;42.680;23.310;2023-04-16T08:42:13;8.37;;;4.03;;
5379;SDS011;2713;42.680;23.310;2023-04-16T08:44:47;5.43;;;4.20;;
5379;SDS011;2713;42.680;23.310;2023-04-16T08:47:14;5.17;;;4.37;;
5379;SDS011;2713;42.680;23.310;2023-04-16T08:49:43;5.80;;;4.00;;
5379;SDS011;2713;42.680;23.310;2023-04-16T08:52:13;6.07;;;3.77;;
5379;SDS011;2713;42.680;23.310;2023-04-16T08:54:45;4.70;;;3.50;;
5379;SDS011;2713;42.680;23.310;2023-04-16T08:57:18;6.00;;;3.80;;
5379;SDS011;2713;42.680;23.310;2023-04-16T08:59:48;6.57;;;3.67;;
5379;SDS011;2713;42.680;23.310;2023-04-16T09:02:17;3.93;;;3.50;;
5379;SDS011;2713;42.680;23.310;2023-04-16T09:04:45;3.67;;;3.17;;
5379;SDS011;2713;42.680;23.310;2023-04-16T09:07:13;3.80;;;3.27;;
5379;SDS011;2713;42.680;23.310;2023-04-16T09:09:42;3.67;;;3.27;;
5379;SDS011;2713;42.680;23.310;2023-04-16T09:12:09;3.87;;;3.10;;
5379;SDS011;2713;42.680;23.310;2023-04-16T09:14:37;3.80;;;3.10;;
5379;SDS011;2713;42.680;23.310;2023-04-16T09:17:06;4.23;;;3.30;;
5379;SDS011;2713;42.680;23.310;2023-04-16T09:19:33;3.90;;;3.37;;
5379;SDS011;2713;42.680;23.310;2023-04-16T09:22:01;3.90;;;3.50;;
5379;SDS011;2713;42.680;23.310;2023-04-16T09:24:28;4.83;;;3.27;;
5379;SDS011;2713;42.680;23.310;2023-04-16T09:26:55;6.40;;;3.90;;
5379;SDS011;2713;42.680;23.310;2023-04-16T09:29:32;6.60;;;3.60;;
5379;SDS011;2713;42.680;23.310;2023-04-16T09:32:00;3.70;;;3.23;;
5379;SDS011;2713;42.680;23.310;2023-04-16T09:34:28;3.37;;;3.17;;
5379;SDS011;2713;42.680;23.310;2023-04-16T09:37:02;5.80;;;3.57;;
5379;SDS011;2713;42.680;23.310;2023-04-16T09:39:40;4.53;;;3.33;;
5379;SDS011;2713;42.680;23.310;2023-04-16T09:42:08;5.33;;;3.43;;
5379;SDS011;2713;42.680;23.310;2023-04-16T09:44:35;4.80;;;3.60;;
5379;SDS011;2713;42.680;23.310;2023-04-16T09:47:04;4.00;;;3.60;;
5379;SDS011;2713;42.680;23.310;2023-04-16T09:49:32;5.20;;;3.40;;
5379;SDS011;2713;42.680;23.310;2023-04-16T09:52:00;3.67;;;3.30;;
5379;SDS011;2713;42.680;23.310;2023-04-16T09:54:28;3.23;;;2.67;;
5379;SDS011;2713;42.680;23.310;2023-04-16T09:56:55;4.33;;;3.30;;
5379;SDS011;2713;42.680;23.310;2023-04-16T09:59:23;4.50;;;3.80;;
5379;SDS011;2713;42.680;23.310;2023-04-16T10:01:50;4.50;;;3.60;;
5379;SDS011;2713;42.680;23.310;2023-04-16T10:04:18;5.70;;;3.77;;
5379;SDS011;2713;42.680;23.310;2023-04-16T10:06:48;4.17;;;3.70;;
5379;SDS011;2713;42.680;23.310;2023-04-16T10:09:31;7.40;;;3.57;;
5379;SDS011;2713;42.680;23.310;2023-04-16T10:12:02;4.83;;;3.60;;
5379;SDS011;2713;42.680;23.310;2023-04-16T10:14:30;4.30;;;3.30;;
5379;SDS011;2713;42.680;23.310;2023-04-16T10:16:58;4.40;;;2.90;;
5379;SDS011;2713;42.680;23.310;2023-04-16T10:19:25;5.50;;;3.40;;
5379;SDS011;2713;42.680;23.310;2023-04-16T10:21:53;4.93;;;3.33;;
5379;SDS011;2713;42.680;23.310;2023-04-16T10:24:20;4.00;;;3.40;;
5379;SDS011;2713;42.680;23.310;2023-04-16T10:26:49;4.63;;;3.97;;
5379;SDS011;2713;42.680;23.310;2023-04-16T10:29:17;4.13;;;3.40;;
5379;SDS011;2713;42.680;23.310;2023-04-16T10:31:44;4.27;;;3.60;;
5379;SDS011;2713;42.680;23.310;2023-04-16T10:34:13;4.20;;;3.30;;
5379;SDS011;2713;42.680;23.310;2023-04-16T10:36:41;3.50;;;3.20;;
5379;SDS011;2713;42.680;23.310;2023-04-16T10:39:08;3.10;;;2.80;;
5379;SDS011;2713;42.680;23.310;2023-04-16T10:41:36;3.77;;;2.90;;
5379;SDS011;2713;42.680;23.310;2023-04-16T10:44:05;3.43;;;2.97;;
5379;SDS011;2713;42.680;23.310;2023-04-16T10:46:36;3.63;;;3.30;;
5379;SDS011;2713;42.680;23.310;2023-04-16T10:49:11;4.63;;;3.20;;
5379;SDS011;2713;42.680;23.310;2023-04-16T10:51:39;6.00;;;4.50;;
5379;SDS011;2713;42.680;23.310;2023-04-16T10:54:20;4.03;;;3.40;;
5379;SDS011;2713;42.680;23.310;2023-04-16T10:56:50;3.60;;;3.00;;
5379;SDS011;2713;42.680;23.310;2023-04-16T10:59:19;3.37;;;3.07;;
5379;SDS011;2713;42.680;23.310;2023-04-16T11:01:47;4.87;;;3.83;;
5379;SDS011;2713;42.680;23.310;2023-04-16T11:04:25;5.87;;;3.60;;
5379;SDS011;2713;42.680;23.310;2023-04-16T11:07:01;4.37;;;3.03;;
5379;SDS011;2713;42.680;23.310;2023-04-16T11:12:32;3.70;;;3.40;;
5379;SDS011;2713;42.680;23.310;2023-04-16T11:15:01;4.93;;;3.63;;
5379;SDS011;2713;42.680;23.310;2023-04-16T11:17:30;5.17;;;3.00;;
5379;SDS011;2713;42.680;23.310;2023-04-16T11:19:58;6.00;;;3.70;;
5379;SDS011;2713;42.680;23.310;2023-04-16T11:22:25;3.97;;;3.23;;
5379;SDS011;2713;42.680;23.310;2023-04-16T11:24:52;4.67;;;3.07;;
5379;SDS011;2713;42.680;23.310;2023-04-16T11:27:20;4.20;;;3.80;;
5379;SDS011;2713;42.680;23.310;2023-04-16T11:29:55;5.53;;;3.27;;
5379;SDS011;2713;42.680;23.310;2023-04-16T11:32:24;4.03;;;3.40;;
5379;SDS011;2713;42.680;23.310;2023-04-16T11:34:51;13.00;;;3.13;;
5379;SDS011;2713;42.680;23.310;2023-04-16T11:37:19;6.17;;;2.90;;
5379;SDS011;2713;42.680;23.310;2023-04-16T11:39:50;4.10;;;2.97;;
5379;SDS011;2713;42.680;23.310;2023-04-16T11:42:18;3.10;;;2.80;;
5379;SDS011;2713;42.680;23.310;2023-04-16T11:44:49;3.37;;;3.07;;
5379;SDS011;2713;42.680;23.310;2023-04-16T11:47:17;3.20;;;2.87;;
5379;SDS011;2713;42.680;23.310;2023-04-16T11:49:45;5.10;;;2.70;;
5379;SDS011;2713;42.680;23.310;2023-04-16T11:52:12;3.53;;;2.80;;
5379;SDS011;2713;42.680;23.310;2023-04-16T11:54:38;3.00;;;2.73;;
5379;SDS011;2713;42.680;23.310;2023-04-16T11:57:05;4.03;;;2.90;;
5379;SDS011;2713;42.680;23.310;2023-04-16T11:59:32;3.20;;;2.90;;
5379;SDS011;2713;42.680;23.310;2023-04-16T12:02:01;5.50;;;2.80;;
5379;SDS011;2713;42.680;23.310;2023-04-16T12:04:27;4.40;;;2.40;;
5379;SDS011;2713;42.680;23.310;2023-04-16T12:07:05;6.20;;;2.90;;
5379;SDS011;2713;42.680;23.310;2023-04-16T12:09:36;3.20;;;3.00;;
5379;SDS011;2713;42.680;23.310;2023-04-16T12:12:04;2.63;;;2.43;;
5379;SDS011;2713;42.680;23.310;2023-04-16T12:14:31;3.37;;;2.33;;
5379;SDS011;2713;42.680;23.310;2023-04-16T12:19:49;2.83;;;2.60;;
5379;SDS011;2713;42.680;23.310;2023-04-16T12:22:18;2.70;;;2.30;;
5379;SDS011;2713;42.680;23.310;2023-04-16T12:24:54;3.93;;;2.20;;
5379;SDS011;2713;42.680;23.310;2023-04-16T12:27:22;3.90;;;2.33;;
5379;SDS011;2713;42.680;23.310;2023-04-16T12:32:37;2.60;;;2.40;;
5379;SDS011;2713;42.680;23.310;2023-04-16T12:35:04;2.40;;;2.20;;
5379;SDS011;2713;42.680;23.310;2023-04-16T12:37:32;3.13;;;2.50;;
5379;SDS011;2713;42.680;23.310;2023-04-16T12:40:00;3.33;;;2.50;;
5379;SDS011;2713;42.680;23.310;2023-04-16T12:42:28;3.60;;;2.57;;
5379;SDS011;2713;42.680;23.310;2023-04-16T12:44:59;5.30;;;2.90;;
5379;SDS011;2713;42.680;23.310;2023-04-16T12:47:26;3.80;;;3.20;;
5379;SDS011;2713;42.680;23.310;2023-04-16T12:49:53;3.33;;;3.03;;
5379;SDS011;2713;42.680;23.310;2023-04-16T12:52:21;2.47;;;2.37;;
5379;SDS011;2713;42.680;23.310;2023-04-16T12:54:49;4.30;;;3.00;;
5379;SDS011;2713;42.680;23.310;2023-04-16T12:57:16;3.27;;;2.77;;
5379;SDS011;2713;42.680;23.310;2023-04-16T12:59:43;3.70;;;3.37;;
5379;SDS011;2713;42.680;23.310;2023-04-16T13:02:10;4.80;;;3.80;;
5379;SDS011;2713;42.680;23.310;2023-04-16T13:04:37;5.70;;;4.07;;
5379;SDS011;2713;42.680;23.310;2023-04-16T13:07:03;9.97;;;4.10;;
5379;SDS011;2713;42.680;23.310;2023-04-16T13:09:30;8.90;;;4.37;;
5379;SDS011;2713;42.680;23.310;2023-04-16T13:11:58;4.70;;;3.67;;
5379;SDS011;2713;42.680;23.310;2023-04-16T13:14:25;5.93;;;3.90;;
5379;SDS011;2713;42.680;23.310;2023-04-16T13:16:52;4.70;;;3.80;;
5379;SDS011;2713;42.680;23.310;2023-04-16T13:19:19;3.67;;;3.33;;
5379;SDS011;2713;42.680;23.310;2023-04-16T13:21:45;5.70;;;3.30;;
5379;SDS011;2713;42.680;23.310;2023-04-16T13:24:12;4.60;;;2.93;;
5379;SDS011;2713;42.680;23.310;2023-04-16T13:26:39;5.73;;;3.07;;
5379;SDS011;2713;42.680;23.310;2023-04-16T13:29:08;3.80;;;2.90;;
5379;SDS011;2713;42.680;23.310;2023-04-16T13:31:35;2.77;;;2.50;;
5379;SDS011;2713;42.680;23.310;2023-04-16T13:34:03;2.90;;;2.50;;
5379;SDS011;2713;42.680;23.310;2023-04-16T13:36:30;2.83;;;2.57;;
5379;SDS011;2713;42.680;23.310;2023-04-16T13:38:57;3.20;;;2.60;;
5379;SDS011;2713;42.680;23.310;2023-04-16T13:41:24;4.30;;;2.37;;
5379;SDS011;2713;42.680;23.310;2023-04-16T13:43:51;2.93;;;2.60;;
5379;SDS011;2713;42.680;23.310;2023-04-16T13:46:19;3.50;;;2.27;;
5379;SDS011;2713;42.680;23.310;2023-04-16T13:48:46;2.63;;;2.20;;
5379;SDS011;2713;42.680;23.310;2023-04-16T13:51:13;2.63;;;2.10;;
5379;SDS011;2713;42.680;23.310;2023-04-16T13:53:39;4.57;;;2.17;;
5379;SDS011;2713;42.680;23.310;2023-04-16T13:56:06;5.33;;;2.30;;
5379;SDS011;2713;42.680;23.310;2023-04-16T13:58:33;4.30;;;2.13;;
5379;SDS011;2713;42.680;23.310;2023-04-16T14:01:00;2.80;;;2.40;;
5379;SDS011;2713;42.680;23.310;2023-04-16T14:03:28;2.60;;;2.40;;
5379;SDS011;2713;42.680;23.310;2023-04-16T14:05:56;4.70;;;2.80;;
5379;SDS011;2713;42.680;23.310;2023-04-16T14:08:23;5.43;;;2.57;;
5379;SDS011;2713;42.680;23.310;2023-04-16T14:10:50;5.17;;;3.60;;
5379;SDS011;2713;42.680;23.310;2023-04-16T14:13:16;2.67;;;2.50;;
5379;SDS011;2713;42.680;23.310;2023-04-16T14:15:43;4.97;;;2.43;;
5379;SDS011;2713;42.680;23.310;2023-04-16T14:18:10;3.40;;;2.67;;
5379;SDS011;2713;42.680;23.310;2023-04-16T14:20:38;2.83;;;2.33;;
5379;SDS011;2713;42.680;23.310;2023-04-16T14:23:05;4.93;;;2.20;;
5379;SDS011;2713;42.680;23.310;2023-04-16T14:25:32;2.57;;;2.40;;
5379;SDS011;2713;42.680;23.310;2023-04-16T14:27:59;2.80;;;2.60;;
5379;SDS011;2713;42.680;23.310;2023-04-16T14:30:26;3.13;;;2.50;;
5379;SDS011;2713;42.680;23.310;2023-04-16T14:32:53;2.70;;;2.13;;
5379;SDS011;2713;42.680;23.310;2023-04-16T14:35:20;2.10;;;2.00;;
5379;SDS011;2713;42.680;23.310;2023-04-16T14:37:48;3.20;;;2.50;;
5379;SDS011;2713;42.680;23.310;2023-04-16T14:40:15;4.03;;;2.63;;
5379;SDS011;2713;42.680;23.310;2023-04-16T14:42:42;3.00;;;2.80;;
5379;SDS011;2713;42.680;23.310;2023-04-16T14:45:08;3.97;;;2.37;;
5379;SDS011;2713;42.680;23.310;2023-04-16T14:47:35;3.50;;;2.83;;
5379;SDS011;2713;42.680;23.310;2023-04-16T14:50:09;5.50;;;2.97;;
5379;SDS011;2713;42.680;23.310;2023-04-16T14:52:37;3.70;;;2.90;;
5379;SDS011;2713;42.680;23.310;2023-04-16T14:55:05;3.23;;;2.90;;
5379;SDS011;2713;42.680;23.310;2023-04-16T14:57:32;3.53;;;2.80;;
5379;SDS011;2713;42.680;23.310;2023-04-16T15:00:00;3.07;;;2.87;;
5379;SDS011;2713;42.680;23.310;2023-04-16T15:02:32;4.30;;;3.23;;
5379;SDS011;2713;42.680;23.310;2023-04-16T15:04:58;4.53;;;3.10;;
5379;SDS011;2713;42.680;23.310;2023-04-16T15:07:25;3.37;;;3.07;;
5379;SDS011;2713;42.680;23.310;2023-04-16T15:09:52;3.73;;;3.33;;
5379;SDS011;2713;42.680;23.310;2023-04-16T15:12:20;3.70;;;3.40;;
5379;SDS011;2713;42.680;23.310;2023-04-16T15:14:47;5.60;;;3.70;;